Terminal Aerodrome Forecast
Issued by NWS

Home | Current Version | Previous Version | Text Only | Print | Product List | Glossary On
Versions: 1 2 3 4 5 6 7 8 9 10 11 12 13 14 15 16 17 18 19 20 21 22
000
FTUS42 KFFC 292320
TAFFTY
TAF
KFTY 292320Z 3000/3024 17008G16KT P6SM FEW045 BKN250
     FM300100 15005KT P6SM FEW050 SCT250
     FM301100 15004KT P6SM BKN020
     FM301500 16010KT P6SM BKN035
     FM301800 16011G22KT P6SM BKN045
     FM302000 16011G22KT P6SM SCT050 SCT250=

USA.gov is the U.S. government's official web portal to all federal, state and local government web resources and services.